createdAt,value
2022-12-31T00:00:50.689Z,59.00
2022-12-31T00:04:03.487Z,58.67
2022-12-31T00:07:06.099Z,62.00
2022-12-31T00:10:09.710Z,58.33
2022-12-31T00:13:13.396Z,64.33
2022-12-31T00:16:19.785Z,61.67
2022-12-31T00:19:22.416Z,64.00
2022-12-31T00:22:25.399Z,71.00
2022-12-31T00:25:27.978Z,60.00
2022-12-31T00:28:30.881Z,68.00
2022-12-31T00:31:35.929Z,55.33
2022-12-31T00:34:38.949Z,64.33
2022-12-31T00:37:41.599Z,64.00
2022-12-31T00:40:44.646Z,72.00
2022-12-31T00:43:47.841Z,68.00
2022-12-31T00:46:51.257Z,74.75
2022-12-31T00:49:53.886Z,65.67
2022-12-31T00:52:57.307Z,66.33
2022-12-31T00:56:08.962Z,68.67
2022-12-31T00:59:12.055Z,79.33
2022-12-31T01:02:14.875Z,68.00
2022-12-31T01:05:18.010Z,74.67
2022-12-31T01:08:20.610Z,76.67
2022-12-31T01:11:24.676Z,82.00
2022-12-31T01:14:27.371Z,77.00
2022-12-31T01:17:31.247Z,73.33
2022-12-31T01:20:39.111Z,63.00
2022-12-31T01:23:42.716Z,74.00
2022-12-31T01:26:45.905Z,72.00
2022-12-31T01:29:49.292Z,66.33
2022-12-31T01:32:51.860Z,69.33
2022-12-31T01:35:54.659Z,61.00
2022-12-31T01:38:59.573Z,71.33
2022-12-31T01:42:02.624Z,68.00
2022-12-31T01:45:11.267Z,62.67
2022-12-31T01:48:17.403Z,66.33
2022-12-31T01:51:20.888Z,60.67
2022-12-31T01:54:25.650Z,69.33
2022-12-31T01:57:28.368Z,67.33
2022-12-31T02:00:32.575Z,66.67
2022-12-31T02:03:35.652Z,59.67
2022-12-31T02:06:52.576Z,57.00
2022-12-31T02:09:55.316Z,45.33
2022-12-31T02:12:58.800Z,58.33
2022-12-31T02:16:08.512Z,65.00
2022-12-31T02:19:36.149Z,53.00
2022-12-31T02:22:44.583Z,64.67
2022-12-31T02:25:50.656Z,66.33
2022-12-31T02:29:17.635Z,61.67
2022-12-31T02:32:36.208Z,59.67
2022-12-31T02:35:58.804Z,60.33
2022-12-31T02:39:04.239Z,67.00
2022-12-31T02:42:07.285Z,70.00
2022-12-31T02:45:13.647Z,60.33
2022-12-31T02:48:46.077Z,58.67
2022-12-31T02:52:04.037Z,50.67
2022-12-31T02:55:41.730Z,62.33
2022-12-31T02:59:27.464Z,55.67
2022-12-31T03:02:31.653Z,27.67
2022-12-31T03:05:39.857Z,58.00
2022-12-31T03:09:01.767Z,45.33
2022-12-31T03:12:25.175Z,58.00
2022-12-31T03:15:30.594Z,55.33
2022-12-31T03:18:52.081Z,55.00
2022-12-31T03:22:13.287Z,53.67
2022-12-31T03:25:38.272Z,53.67
2022-12-31T03:28:43.580Z,54.33
2022-12-31T03:31:46.683Z,46.00
2022-12-31T03:34:50.052Z,50.67
2022-12-31T03:37:53.352Z,51.67
2022-12-31T03:40:56.211Z,44.67
2022-12-31T03:43:59.128Z,45.33
2022-12-31T03:47:01.733Z,40.67
2022-12-31T03:50:05.720Z,55.33
2022-12-31T03:53:08.419Z,48.00
2022-12-31T03:56:11.552Z,45.33
2022-12-31T03:59:14.218Z,45.33
2022-12-31T04:02:18.543Z,46.67
2022-12-31T04:05:23.324Z,54.67
2022-12-31T04:08:26.299Z,50.33
2022-12-31T04:11:28.865Z,39.67
2022-12-31T04:14:31.818Z,41.00
2022-12-31T04:17:34.431Z,49.33
2022-12-31T04:20:38.532Z,46.33
2022-12-31T04:23:40.943Z,39.67
2022-12-31T04:26:44.531Z,43.33
2022-12-31T04:29:47.107Z,46.33
2022-12-31T04:32:50.209Z,51.67
2022-12-31T04:35:52.713Z,51.67
2022-12-31T04:38:56.784Z,48.33
2022-12-31T04:41:59.403Z,56.00
2022-12-31T04:45:02.814Z,49.67
2022-12-31T04:48:05.771Z,43.33
2022-12-31T04:51:09.243Z,45.00
2022-12-31T04:54:11.825Z,44.00
2022-12-31T04:57:14.945Z,49.67
2022-12-31T05:00:17.659Z,53.67
2022-12-31T05:03:21.456Z,47.33
2022-12-31T05:06:24.362Z,34.67
2022-12-31T05:09:28.615Z,49.67
2022-12-31T05:12:31.330Z,41.67
2022-12-31T05:15:34.686Z,45.33
2022-12-31T05:18:37.641Z,51.67
2022-12-31T05:21:40.599Z,46.67
2022-12-31T05:24:43.217Z,46.67
2022-12-31T05:27:46.215Z,47.33
2022-12-31T05:30:51.129Z,48.00
2022-12-31T05:33:54.573Z,44.33
2022-12-31T05:36:57.173Z,48.00
2022-12-31T05:40:00.417Z,43.67
2022-12-31T05:43:02.890Z,48.67
2022-12-31T05:46:05.902Z,41.33
2022-12-31T05:49:08.555Z,39.67
2022-12-31T05:52:11.581Z,41.00
2022-12-31T05:55:14.248Z,45.00
2022-12-31T05:58:18.176Z,36.67
2022-12-31T06:01:20.839Z,49.67
2022-12-31T06:04:23.992Z,45.67
2022-12-31T06:07:26.685Z,47.67
2022-12-31T06:10:29.723Z,32.33
2022-12-31T06:13:32.173Z,42.33
2022-12-31T06:16:35.107Z,46.00
2022-12-31T06:19:37.671Z,39.67
2022-12-31T06:22:40.636Z,44.67
2022-12-31T06:25:43.499Z,45.33
2022-12-31T06:28:46.391Z,43.33
2022-12-31T06:31:48.952Z,41.00
2022-12-31T06:34:52.238Z,48.67
2022-12-31T06:37:54.886Z,41.00
2022-12-31T06:40:57.850Z,40.00
2022-12-31T06:44:00.480Z,38.25
2022-12-31T06:47:03.456Z,44.00
2022-12-31T06:50:07.340Z,34.00
2022-12-31T06:53:10.655Z,37.25
2022-12-31T06:56:27.857Z,34.50
2022-12-31T06:59:34.650Z,34.25
2022-12-31T07:02:58.207Z,36.75
2022-12-31T07:06:44.346Z,29.50
2022-12-31T07:09:58.032Z,37.25
2022-12-31T07:13:12.168Z,37.75
2022-12-31T07:16:39.553Z,33.75
2022-12-31T07:20:12.250Z,27.25
2022-12-31T07:23:15.283Z,30.25
2022-12-31T07:26:49.930Z,29.75
2022-12-31T07:30:30.847Z,38.00
2022-12-31T07:33:54.507Z,29.75
2022-12-31T07:37:20.742Z,29.75
2022-12-31T07:40:45.026Z,34.75
2022-12-31T07:44:06.571Z,30.50
2022-12-31T07:47:26.836Z,33.75
2022-12-31T07:50:29.935Z,29.00
2022-12-31T07:53:33.074Z,29.25
2022-12-31T07:56:35.913Z,31.50
2022-12-31T07:59:54.341Z,30.75
2022-12-31T08:03:11.342Z,31.50
2022-12-31T08:06:53.096Z,28.25
2022-12-31T08:10:15.658Z,34.25
2022-12-31T08:13:20.969Z,26.00
2022-12-31T08:16:23.859Z,28.25
2022-12-31T08:19:32.099Z,26.00
2022-12-31T08:22:43.369Z,31.75
2022-12-31T08:26:12.448Z,24.50
2022-12-31T08:29:26.441Z,23.50
2022-12-31T08:32:34.532Z,28.50
2022-12-31T08:36:02.753Z,23.25
2022-12-31T08:39:38.267Z,30.00
2022-12-31T08:43:04.923Z,19.75
2022-12-31T08:46:16.022Z,25.25
2022-12-31T08:49:18.867Z,23.00
2022-12-31T08:52:26.357Z,26.25
2022-12-31T08:55:29.184Z,30.25
2022-12-31T08:58:50.548Z,27.25
2022-12-31T09:02:08.539Z,20.00
2022-12-31T09:05:54.438Z,28.75
2022-12-31T09:09:24.605Z,20.75
2022-12-31T09:13:00.219Z,24.00
2022-12-31T09:16:17.468Z,21.25
2022-12-31T09:19:20.333Z,22.75
2022-12-31T09:22:23.333Z,19.50
2022-12-31T09:25:27.131Z,24.50
2022-12-31T09:28:52.760Z,28.00
2022-12-31T09:31:58.420Z,23.75
2022-12-31T09:35:40.413Z,24.00
2022-12-31T09:39:15.039Z,18.50
2022-12-31T09:42:35.799Z,19.25
2022-12-31T09:46:12.433Z,18.50
2022-12-31T09:49:33.547Z,23.25
2022-12-31T09:53:12.774Z,20.25
2022-12-31T09:56:27.593Z,20.50
2022-12-31T09:59:34.883Z,25.75
2022-12-31T10:03:02.239Z,20.00
2022-12-31T10:06:23.894Z,19.25
2022-12-31T10:09:41.984Z,24.75
2022-12-31T10:13:13.986Z,24.00
2022-12-31T10:16:25.729Z,19.75
2022-12-31T10:19:50.387Z,27.50
2022-12-31T10:23:15.479Z,30.50
2022-12-31T10:26:29.416Z,22.25
2022-12-31T10:29:34.912Z,20.75
2022-12-31T10:32:46.037Z,20.25
2022-12-31T10:35:58.416Z,20.00
2022-12-31T10:39:08.951Z,56.75
2022-12-31T10:42:26.326Z,20.00
2022-12-31T10:46:07.895Z,19.75
2022-12-31T10:49:21.586Z,20.75
2022-12-31T10:52:43.617Z,11.00
2022-12-31T10:56:34.981Z,14.00
2022-12-31T10:59:43.765Z,15.50
2022-12-31T11:03:22.154Z,15.00
2022-12-31T11:06:59.539Z,14.25
2022-12-31T11:10:31.753Z,11.00
2022-12-31T11:13:46.103Z,15.75
2022-12-31T11:17:04.044Z,16.25
2022-12-31T11:20:44.220Z,15.75
2022-12-31T11:24:10.581Z,15.50
2022-12-31T11:27:37.072Z,14.25
2022-12-31T11:31:11.782Z,14.25
2022-12-31T11:34:37.892Z,12.75
2022-12-31T11:37:43.169Z,13.00
2022-12-31T11:41:26.465Z,14.50
2022-12-31T11:44:47.024Z,10.75
2022-12-31T11:48:32.241Z,12.00
2022-12-31T11:52:02.949Z,13.25
2022-12-31T11:55:16.922Z,13.75
2022-12-31T11:58:28.843Z,12.75
2022-12-31T12:02:03.663Z,13.00
2022-12-31T12:05:10.992Z,11.75
2022-12-31T12:08:15.161Z,12.25
2022-12-31T12:11:27.986Z,33.00
2022-12-31T12:14:35.702Z,12.50
2022-12-31T12:17:39.685Z,15.50
2022-12-31T12:20:44.886Z,13.50
2022-12-31T12:24:16.991Z,13.75
2022-12-31T12:27:22.426Z,16.25
2022-12-31T12:30:28.416Z,15.00
2022-12-31T12:33:42.709Z,11.25
2022-12-31T12:36:48.488Z,11.25
2022-12-31T12:40:09.774Z,16.00
2022-12-31T12:43:23.601Z,16.00
2022-12-31T12:46:43.551Z,12.25
2022-12-31T12:49:50.164Z,11.50
2022-12-31T12:53:14.735Z,16.50
2022-12-31T12:56:25.010Z,16.50
2022-12-31T12:59:37.069Z,13.50
2022-12-31T13:02:54.887Z,12.25
2022-12-31T13:06:09.736Z,14.75
2022-12-31T13:09:12.205Z,13.00
2022-12-31T13:12:17.440Z,17.00
2022-12-31T13:15:30.040Z,17.25
2022-12-31T13:18:43.846Z,15.25
2022-12-31T13:22:05.365Z,12.00
2022-12-31T13:25:23.478Z,11.75
2022-12-31T13:28:26.863Z,12.25
2022-12-31T13:31:34.373Z,8.75
2022-12-31T13:34:42.591Z,11.00
2022-12-31T13:37:45.832Z,13.75
2022-12-31T13:40:57.774Z,12.25
2022-12-31T13:44:34.832Z,10.25
2022-12-31T13:48:01.995Z,12.50
2022-12-31T13:51:18.644Z,11.00
2022-12-31T13:54:51.944Z,12.75
2022-12-31T13:58:17.318Z,16.25
2022-12-31T14:01:38.383Z,11.00
2022-12-31T14:04:47.925Z,12.00
2022-12-31T14:07:59.491Z,12.00
2022-12-31T14:11:28.024Z,12.50
2022-12-31T14:14:47.015Z,15.25
2022-12-31T14:18:05.228Z,19.50
2022-12-31T14:21:22.299Z,13.75
2022-12-31T14:24:37.396Z,15.00
2022-12-31T14:27:42.650Z,15.50
2022-12-31T14:30:46.638Z,12.25
2022-12-31T14:34:09.147Z,15.50
2022-12-31T14:37:16.777Z,15.50
2022-12-31T14:40:37.408Z,17.00
2022-12-31T14:43:49.231Z,17.75
2022-12-31T14:46:57.764Z,18.00
2022-12-31T14:50:05.620Z,17.75
2022-12-31T14:53:16.109Z,12.25
2022-12-31T14:56:41.276Z,16.75
2022-12-31T14:59:58.358Z,12.00
2022-12-31T15:03:07.545Z,17.75
2022-12-31T15:06:36.307Z,13.75
2022-12-31T15:10:15.503Z,11.50
2022-12-31T15:13:21.539Z,15.00
2022-12-31T15:16:52.385Z,15.00
2022-12-31T15:20:32.749Z,14.00
2022-12-31T15:23:38.107Z,15.75
2022-12-31T15:26:48.838Z,13.00
2022-12-31T15:29:51.946Z,14.00
2022-12-31T15:32:55.926Z,14.50
2022-12-31T15:36:18.308Z,14.50
2022-12-31T15:39:43.566Z,11.00
2022-12-31T15:42:55.662Z,13.75
2022-12-31T15:45:58.349Z,16.00
2022-12-31T15:49:15.301Z,14.00
2022-12-31T15:52:27.408Z,12.75
2022-12-31T15:55:38.835Z,15.50
2022-12-31T15:58:41.849Z,13.00
2022-12-31T16:01:46.391Z,15.50
2022-12-31T16:04:49.669Z,14.00
2022-12-31T16:07:57.509Z,15.00
2022-12-31T16:11:04.862Z,14.00
2022-12-31T16:14:07.927Z,16.75
2022-12-31T16:17:28.543Z,17.75
2022-12-31T16:20:33.512Z,14.00
2022-12-31T16:23:40.489Z,13.50
2022-12-31T16:26:50.886Z,11.25
2022-12-31T16:30:07.489Z,15.00
2022-12-31T16:33:15.017Z,13.75
2022-12-31T16:36:21.541Z,15.50
2022-12-31T16:39:26.508Z,27.75
2022-12-31T16:42:29.634Z,25.50
2022-12-31T16:45:35.347Z,24.75
2022-12-31T16:48:38.741Z,19.00
2022-12-31T16:51:42.452Z,21.25
2022-12-31T16:54:49.161Z,18.00
2022-12-31T16:57:56.033Z,17.00
2022-12-31T17:01:12.406Z,13.75
2022-12-31T17:04:20.174Z,19.50
2022-12-31T17:07:33.696Z,14.75
2022-12-31T17:10:37.027Z,15.25
2022-12-31T17:13:39.701Z,14.50
2022-12-31T17:17:04.464Z,17.00
2022-12-31T17:20:11.751Z,15.00
2022-12-31T17:23:23.496Z,18.25
2022-12-31T17:26:31.289Z,17.75
2022-12-31T17:29:34.827Z,15.50
2022-12-31T17:32:38.010Z,17.50
2022-12-31T17:35:42.624Z,18.50
2022-12-31T17:38:45.241Z,15.50
2022-12-31T17:41:50.507Z,17.00
2022-12-31T17:44:57.224Z,15.50
2022-12-31T17:48:00.107Z,13.75
2022-12-31T17:51:02.863Z,18.25
2022-12-31T17:54:16.687Z,13.75
2022-12-31T17:57:27.150Z,14.50
2022-12-31T18:00:30.279Z,17.75
2022-12-31T18:03:32.967Z,14.25
2022-12-31T18:06:36.328Z,15.00
2022-12-31T18:09:38.985Z,20.25
2022-12-31T18:12:43.699Z,17.00
2022-12-31T18:15:47.057Z,15.75
2022-12-31T18:18:49.958Z,19.25
2022-12-31T18:21:52.411Z,17.00
2022-12-31T18:24:55.461Z,23.00
2022-12-31T18:27:58.166Z,23.75
2022-12-31T18:31:01.567Z,19.00
2022-12-31T18:34:04.121Z,19.25
2022-12-31T18:37:17.921Z,17.50
2022-12-31T18:40:24.057Z,16.50
2022-12-31T18:43:26.927Z,20.75
2022-12-31T18:46:29.460Z,16.25
2022-12-31T18:49:32.524Z,18.00
2022-12-31T18:52:35.142Z,17.50
2022-12-31T18:55:46.127Z,18.25
2022-12-31T18:58:49.420Z,18.75
2022-12-31T19:01:52.603Z,18.25
2022-12-31T19:04:55.084Z,16.75
2022-12-31T19:07:58.491Z,20.00
2022-12-31T19:11:01.746Z,16.25
2022-12-31T19:14:12.198Z,18.25
2022-12-31T19:17:14.909Z,20.75
2022-12-31T19:20:17.972Z,21.50
2022-12-31T19:23:21.817Z,18.25
2022-12-31T19:26:24.933Z,18.00
2022-12-31T19:29:28.655Z,15.25
2022-12-31T19:32:31.501Z,17.75
2022-12-31T19:35:34.161Z,14.25
2022-12-31T19:38:37.534Z,17.50
2022-12-31T19:41:42.572Z,18.00
2022-12-31T19:44:45.658Z,21.50
2022-12-31T19:47:48.989Z,21.50
2022-12-31T19:50:54.019Z,24.00
2022-12-31T19:53:56.565Z,19.00
2022-12-31T19:56:59.743Z,19.00
2022-12-31T20:00:02.186Z,17.25
2022-12-31T20:03:15.677Z,21.50
2022-12-31T20:06:19.488Z,16.50
2022-12-31T20:09:22.267Z,15.00
2022-12-31T20:12:24.859Z,10.25
2022-12-31T20:15:27.846Z,17.50
2022-12-31T20:18:30.484Z,19.50
2022-12-31T20:21:33.349Z,20.25
2022-12-31T20:24:35.916Z,15.75
2022-12-31T20:27:38.983Z,18.00
2022-12-31T20:30:41.639Z,19.25
2022-12-31T20:33:45.176Z,18.50
2022-12-31T20:36:47.668Z,17.00
2022-12-31T20:39:50.680Z,20.00
2022-12-31T20:42:53.490Z,14.50
2022-12-31T20:45:56.327Z,13.00
2022-12-31T20:49:00.492Z,18.00
2022-12-31T20:52:05.705Z,19.75
2022-12-31T20:55:10.066Z,15.25
2022-12-31T20:58:13.043Z,19.00
2022-12-31T21:01:16.732Z,9.75
2022-12-31T21:04:20.130Z,17.25
2022-12-31T21:07:22.850Z,14.25
2022-12-31T21:10:25.711Z,15.25
2022-12-31T21:13:28.457Z,18.25
2022-12-31T21:16:32.136Z,15.75
2022-12-31T21:19:34.703Z,19.25
2022-12-31T21:22:38.138Z,21.00
2022-12-31T21:25:41.913Z,21.25
2022-12-31T21:28:45.163Z,18.50
2022-12-31T21:31:47.611Z,19.00
2022-12-31T21:35:14.549Z,22.75
2022-12-31T21:38:13.310Z,14.50
2022-12-31T21:41:35.265Z,14.75
2022-12-31T21:44:38.071Z,20.00
2022-12-31T21:47:59.506Z,17.00
2022-12-31T21:51:09.523Z,23.50
2022-12-31T21:54:32.498Z,19.00
2022-12-31T21:57:52.188Z,14.75
2022-12-31T22:01:17.566Z,20.50
2022-12-31T22:04:59.896Z,14.75
2022-12-31T22:07:43.249Z,14.75
2022-12-31T22:10:52.134Z,18.75
2022-12-31T22:13:56.357Z,14.00
2022-12-31T22:16:59.016Z,16.75
2022-12-31T22:20:26.513Z,15.25
2022-12-31T22:23:24.493Z,14.75
2022-12-31T22:26:29.369Z,15.25
2022-12-31T22:29:31.801Z,10.00
2022-12-31T22:32:34.879Z,15.25
2022-12-31T22:35:37.504Z,14.00
2022-12-31T22:38:40.750Z,20.75
2022-12-31T22:41:43.688Z,8.50
2022-12-31T22:44:46.625Z,16.75
2022-12-31T22:47:49.220Z,16.75
2022-12-31T22:50:58.956Z,17.75
2022-12-31T22:54:01.430Z,15.75
2022-12-31T22:57:04.899Z,26.00
2022-12-31T23:00:12.744Z,17.00
2022-12-31T23:03:15.744Z,16.75
2022-12-31T23:06:18.889Z,20.00
2022-12-31T23:09:40.741Z,33.75
2022-12-31T23:12:43.454Z,27.75
2022-12-31T23:16:04.910Z,28.75
2022-12-31T23:19:28.163Z,32.25
2022-12-31T23:22:49.562Z,33.00
2022-12-31T23:25:52.952Z,32.25
2022-12-31T23:28:55.698Z,22.50
2022-12-31T23:31:58.295Z,18.25
2022-12-31T23:35:06.086Z,28.25
2022-12-31T23:38:12.825Z,22.00
2022-12-31T23:41:19.193Z,22.00
2022-12-31T23:44:21.840Z,17.75
2022-12-31T23:47:24.959Z,20.25
2022-12-31T23:50:27.708Z,19.00
2022-12-31T23:53:30.487Z,19.25
2022-12-31T23:56:33.169Z,24.00
2022-12-31T23:59:36.029Z,20.00
